Pagrindinis puslapis
METAR-TAF:

METAR-TAF

Oro uostai :

Frensistaunas, Botsvana

platuma: 21-13S, ilguma: 027-30E, Aukštis: 1001 m

Dabartinis oras

Ataskaita buvo paskelbta 8 valandos ir 35 minutes, ne 19:00 UTC
Vėjas 10 kt iš Rytų
Temperatūra 21°C
Drėgmė 73%
Slėgis 1018 hPa
Matomumas 10 km arba daugiau
Apsiniaukę ne aukštis 2000 ft

METAR: FBFT 201900Z 09010KT 9999 OVC020 21/16 Q1018

Laikas: 05:35 (03:35 UTC)

Prognozė

Ataskaita buvo paskelbta 3 valandos ir 35 minutes, ne 00:00 UTC
Prognozė galioja nuo 21 metu 03 UTC su 21 metu 12 UTC
Vėjas 10 kt iš Rytų su gūsio iki 20 kt
Matomumas 10 km arba daugiau
Apsiniaukę ne aukštis 1200 ft
Tapsmas
nuo 21 metu 10 UTC su 21 metu 12 UTC
Išsisklaidę debesys ne aukštis 2000 ft

TAF: FBFT 210000Z 2103/2112 09010G20KT 9999 OVC012 BECMG 2110/2112 SCT020

Orai ataskaitas ir orų prognozės (METAR, TAF).

turimą stotys yra geltonos ir raudonos taškus žemėlapyje.

Perkelti pele per norėdami pamatyti stoties vardą.

Tada spustelėkite, norėdami matyti oro stebėjimo ir prognozės.

Norėdami pakeisti žemėlapį: spustelėkite ant žalios mygtukų su juodo kryžiaus žemyn,; žalią mygtuką su brūkšneliu, jei norite nutolinti; arba žalių rodyklių gretimoms žemėlapius.


METAR-TAF: